Fort Stewart, GA

9:19 PM EDT on August 28, 2014 (GMT -0400)
Wright Army Air Field | Change Station
CLOSE
Current Station
Airport
Location: Ft. Stewart,
Elevation: 46 ft
Nearby Weather Stations

Elev 46 ft 31.89 °N, 81.56 °W | Updated 21 minutes ago

Clear
Clear
78 °F
Feels Like 78 °F
N
2
Wind Variable Wind from SE

Today
High -- | Low -- °F
--% Chance of Precip.
Yesterday
High -- | Low -- °F
Precip. -- in
6:59 AM 7:55 PM
Waxing Crescent, 11% visible
Pressure 30.00 in
Visibility 10.0 miles
Clouds Clear
Dew Point 67 °F
Humidity 70%
Rainfall 0.00 in
Snow Depth Not available.
UV 0 out of 12
Pollen 6.40 out of 12
Air Quality Not available.
Flu Activity Not available.
METAR KLHW 290058Z AUTO 14002KT 10SM CLR 25/20 A2999 RMK AO2 SLP158 T02530195

More Conditions Fewer Conditions

Pressure 30.00 in
Visibility 10.0 miles
Clouds Clear
Dew Point 67 °F
Humidity 70%
Rainfall 0.00 in
Snow Depth Not available.
UV 0 out of 12
Pollen 6.40 out of 12
Air Quality Not available.
Flu Activity Not available.
METAR KLHW 290058Z AUTO 14002KT 10SM CLR 25/20 A2999 RMK AO2 SLP158 T02530195

More Conditions Fewer Conditions

10-Day Weather Forecast

Almanac

Astronomy

Aug. 28, 2014 Rise Set
Actual Time 6:59 AM EDT 7:55 PM EDT
Civil Twilight 6:34 AM EDT 8:20 PM EDT
Nautical Twilight 6:04 AM EDT 8:49 PM EDT
Astronomical Twilight 5:34 AM EDT 9:20 PM EDT
Moon 9:37 AM EDT (8/28) 9:32 PM EDT (8/28)
Length of Visible Light 13h 45m
Length of Day
12h 55m
Tomorrow will be 1m 51s shorter.
Waxing Crescent, 11% of the Moon is Illuminated
Today
Waxing Crescent
Sep 2
First Quarter
Sep 8
Full
Sep 15
Last Quarter
Sep 24
New

Today's Extremes

State Highs State Lows

Community

WunderPhotos

Upload Photos

1,748,126 photos uploaded!

Nearby

Snow Depth

Station Depth Elevation
No new snow has been reported.

Earthquake Activity

City Distance Mag. Time & Date
No recent earthquake activity has been reported nearby.
Minimum magnitude displayed is 2.5.

Coastal Water Temperatures

Place Temperature
No Stations Reporting

Nearby Weather Stations